createdAt,value
2022-07-30T00:00:57.100Z,48.77
2022-07-30T00:02:59.013Z,48.79
2022-07-30T00:05:01.261Z,48.56
2022-07-30T00:07:04.549Z,48.95
2022-07-30T00:09:07.318Z,48.42
2022-07-30T00:11:09.533Z,48.60
2022-07-30T00:13:14.257Z,48.46
2022-07-30T00:15:16.709Z,48.80
2022-07-30T00:17:18.471Z,48.67
2022-07-30T00:19:21.291Z,48.69
2022-07-30T00:21:35.598Z,48.82
2022-07-30T00:23:41.306Z,48.88
2022-07-30T00:26:03.040Z,49.22
2022-07-30T00:28:05.043Z,48.82
2022-07-30T00:30:07.375Z,49.18
2022-07-30T00:32:09.236Z,49.87
2022-07-30T00:34:13.028Z,49.57
2022-07-30T00:36:14.908Z,49.77
2022-07-30T00:38:16.718Z,49.24
2022-07-30T00:40:18.928Z,49.34
2022-07-30T00:42:25.812Z,49.75
2022-07-30T00:44:28.512Z,49.20
2022-07-30T00:46:30.514Z,49.54
2022-07-30T00:48:32.356Z,49.62
2022-07-30T00:50:34.421Z,49.69
2022-07-30T00:52:41.295Z,49.43
2022-07-30T00:54:43.097Z,49.36
2022-07-30T00:56:44.940Z,49.33
2022-07-30T00:58:46.705Z,49.55
2022-07-30T01:00:48.662Z,49.83
2022-07-30T01:02:50.637Z,49.57
2022-07-30T01:04:52.730Z,49.45
2022-07-30T01:06:54.556Z,49.32
2022-07-30T01:08:56.568Z,49.66
2022-07-30T01:10:58.548Z,49.73
2022-07-30T01:13:02.048Z,49.53
2022-07-30T01:15:06.782Z,49.26
2022-07-30T01:17:08.954Z,49.66
2022-07-30T01:19:48.298Z,50.21
2022-07-30T01:22:00.274Z,49.35
2022-07-30T01:24:21.607Z,49.63
2022-07-30T01:26:23.869Z,50.00
2022-07-30T01:28:42.348Z,49.62
2022-07-30T01:30:45.734Z,49.70
2022-07-30T01:32:49.497Z,49.67
2022-07-30T01:34:53.485Z,49.68
2022-07-30T01:36:58.989Z,49.76
2022-07-30T01:39:02.129Z,50.38
2022-07-30T01:41:05.537Z,49.93
2022-07-30T01:43:09.165Z,49.85
2022-07-30T01:45:13.095Z,50.17
2022-07-30T01:47:17.314Z,50.15
2022-07-30T01:49:22.226Z,50.15
2022-07-30T01:51:24.920Z,50.52
2022-07-30T01:53:31.789Z,50.45
2022-07-30T01:55:37.134Z,50.57
2022-07-30T01:57:40.072Z,50.29
2022-07-30T01:59:46.122Z,50.04
2022-07-30T02:01:48.527Z,49.66
2022-07-30T02:03:51.225Z,49.67
2022-07-30T02:05:59.217Z,49.76
2022-07-30T02:08:40.151Z,50.03
2022-07-30T02:10:48.794Z,50.13
2022-07-30T02:12:56.144Z,49.86
2022-07-30T02:15:10.836Z,50.23
2022-07-30T02:17:19.410Z,50.13
2022-07-30T02:19:23.895Z,50.77
2022-07-30T02:21:39.695Z,49.99
2022-07-30T02:23:55.865Z,49.99
2022-07-30T02:26:00.789Z,49.84
2022-07-30T02:28:09.381Z,49.93
2022-07-30T02:30:12.385Z,50.16
2022-07-30T02:32:15.525Z,50.07
2022-07-30T02:34:22.607Z,50.41
2022-07-30T02:36:25.861Z,49.90
2022-07-30T02:38:29.974Z,49.71
2022-07-30T02:40:32.341Z,49.69
2022-07-30T02:42:35.342Z,49.88
2022-07-30T02:44:38.669Z,50.10
2022-07-30T02:46:41.812Z,50.13
2022-07-30T02:49:24.197Z,50.62
2022-07-30T02:51:28.174Z,50.14
2022-07-30T02:53:32.504Z,50.23
2022-07-30T02:55:36.952Z,50.37
2022-07-30T02:57:43.335Z,50.33
2022-07-30T02:59:49.087Z,50.73
2022-07-30T03:01:52.457Z,50.65
2022-07-30T03:03:55.357Z,50.76
2022-07-30T03:05:59.680Z,50.77
2022-07-30T03:08:02.831Z,50.70
2022-07-30T03:10:06.789Z,51.25
2022-07-30T03:12:10.566Z,51.59
2022-07-30T03:14:12.777Z,52.90
2022-07-30T03:16:17.294Z,52.37
2022-07-30T03:18:20.970Z,52.77
2022-07-30T03:20:27.588Z,52.20
2022-07-30T03:22:33.242Z,51.71
2022-07-30T03:24:38.356Z,53.09
2022-07-30T03:26:41.950Z,52.75
2022-07-30T03:28:44.785Z,52.88
2022-07-30T03:30:46.941Z,52.76
2022-07-30T03:32:50.386Z,52.57
2022-07-30T03:34:54.234Z,52.06
2022-07-30T03:37:03.374Z,52.20
2022-07-30T03:39:08.216Z,52.51
2022-07-30T03:41:11.069Z,52.35
2022-07-30T03:43:32.378Z,52.70
2022-07-30T03:45:44.502Z,54.11
2022-07-30T03:47:47.775Z,53.86
2022-07-30T03:49:49.841Z,54.00
2022-07-30T03:51:53.530Z,54.97
2022-07-30T03:53:56.217Z,55.54
2022-07-30T03:56:16.222Z,55.12
2022-07-30T03:58:39.073Z,56.77
2022-07-30T04:00:42.074Z,55.99
2022-07-30T04:02:45.763Z,56.33
2022-07-30T04:05:15.350Z,56.42
2022-07-30T04:07:17.904Z,56.69
2022-07-30T04:09:19.755Z,56.68
2022-07-30T04:11:40.641Z,56.99
2022-07-30T04:13:46.133Z,57.17
2022-07-30T04:16:39.406Z,57.66
2022-07-30T04:18:33.341Z,58.03
2022-07-30T04:20:41.231Z,57.90
2022-07-30T04:22:43.796Z,57.62
2022-07-30T04:24:46.028Z,57.66
2022-07-30T04:26:49.292Z,57.19
2022-07-30T04:28:51.891Z,57.32
2022-07-30T04:34:48.322Z,56.76
2022-07-30T04:36:52.947Z,56.18
2022-07-30T04:38:54.776Z,56.34
2022-07-30T04:40:56.660Z,56.44
2022-07-30T04:42:59.045Z,55.99
2022-07-30T04:45:01.009Z,56.17
2022-07-30T04:47:23.603Z,55.91
2022-07-30T04:49:46.529Z,55.85
2022-07-30T04:51:49.672Z,55.87
2022-07-30T04:53:54.843Z,55.92
2022-07-30T04:55:59.397Z,55.25
2022-07-30T04:58:04.510Z,55.77
2022-07-30T05:00:10.434Z,55.18
2022-07-30T05:02:16.507Z,55.44
2022-07-30T05:04:20.576Z,55.41
2022-07-30T05:06:24.144Z,56.46
2022-07-30T05:08:28.266Z,56.24
2022-07-30T05:10:33.953Z,56.48
2022-07-30T05:12:40.039Z,55.88
2022-07-30T05:14:46.579Z,55.60
2022-07-30T05:16:51.488Z,55.18
2022-07-30T05:18:53.557Z,55.08
2022-07-30T05:20:55.456Z,54.37
2022-07-30T05:23:01.486Z,54.07
2022-07-30T05:25:04.566Z,53.79
2022-07-30T05:27:20.381Z,53.63
2022-07-30T05:29:22.189Z,53.40
2022-07-30T05:31:31.089Z,53.13
2022-07-30T05:33:41.008Z,52.70
2022-07-30T05:35:46.680Z,52.60
2022-07-30T05:37:48.789Z,52.38
2022-07-30T05:39:57.320Z,51.91
2022-07-30T05:42:22.646Z,51.41
2022-07-30T05:44:27.079Z,51.53
2022-07-30T05:46:31.449Z,51.42
2022-07-30T05:48:35.764Z,51.86
2022-07-30T05:50:37.706Z,51.46
2022-07-30T05:52:39.753Z,50.17
2022-07-30T05:55:01.422Z,49.08
2022-07-30T05:57:22.856Z,49.58
2022-07-30T05:59:24.739Z,49.40
2022-07-30T06:01:55.941Z,48.66
2022-07-30T06:04:04.224Z,48.41
2022-07-30T06:06:28.799Z,48.54
2022-07-30T06:08:30.938Z,48.65
2022-07-30T06:10:33.251Z,48.59
2022-07-30T06:12:35.468Z,48.37
2022-07-30T06:14:37.907Z,48.21
2022-07-30T06:16:41.279Z,47.94
2022-07-30T06:18:43.348Z,48.18
2022-07-30T06:20:54.542Z,47.99
2022-07-30T06:23:05.505Z,47.46
2022-07-30T06:25:21.930Z,47.63
2022-07-30T06:27:24.124Z,47.04
2022-07-30T06:29:25.936Z,47.33
2022-07-30T06:31:27.859Z,46.94
2022-07-30T06:33:30.318Z,47.99
2022-07-30T06:35:32.233Z,47.56
2022-07-30T06:37:58.802Z,47.99
2022-07-30T06:39:58.992Z,47.30
2022-07-30T06:42:39.137Z,47.54
2022-07-30T06:44:59.499Z,47.34
2022-07-30T06:47:07.575Z,47.50
2022-07-30T06:49:11.965Z,46.73
2022-07-30T06:51:14.383Z,46.46
2022-07-30T06:53:16.234Z,46.38
2022-07-30T06:56:00.202Z,46.66
2022-07-30T06:58:08.794Z,46.57
2022-07-30T07:00:28.968Z,46.69
2022-07-30T07:02:31.716Z,46.11
2022-07-30T07:04:54.266Z,46.42
2022-07-30T07:06:56.223Z,46.25
2022-07-30T07:09:06.009Z,46.31
2022-07-30T07:11:15.890Z,46.35
2022-07-30T07:13:21.442Z,45.96
2022-07-30T07:15:32.104Z,45.57
2022-07-30T07:17:40.426Z,45.47
2022-07-30T07:20:03.032Z,45.28
2022-07-30T07:22:11.822Z,45.02
2022-07-30T07:24:14.382Z,44.98
2022-07-30T07:26:45.816Z,44.61
2022-07-30T07:28:48.632Z,44.19
2022-07-30T07:30:50.456Z,44.09
2022-07-30T07:32:52.616Z,44.76
2022-07-30T07:34:54.732Z,43.90
2022-07-30T07:36:56.576Z,43.55
2022-07-30T07:38:58.771Z,43.31
2022-07-30T07:41:01.492Z,42.28
2022-07-30T07:43:05.721Z,43.38
2022-07-30T07:45:09.339Z,42.59
2022-07-30T07:47:19.694Z,42.15
2022-07-30T07:49:36.920Z,42.44
2022-07-30T07:51:47.245Z,42.12
2022-07-30T07:54:11.897Z,41.36
2022-07-30T07:56:15.469Z,41.69
2022-07-30T07:58:25.521Z,41.56
2022-07-30T08:00:31.543Z,41.13
2022-07-30T08:02:33.454Z,41.41
2022-07-30T08:04:41.032Z,40.27
2022-07-30T08:06:42.889Z,41.27
2022-07-30T08:09:04.162Z,41.04
2022-07-30T08:11:41.679Z,40.43
2022-07-30T08:14:03.484Z,40.74
2022-07-30T08:16:28.095Z,40.68
2022-07-30T08:18:58.924Z,41.02
2022-07-30T08:21:08.721Z,40.87
2022-07-30T08:23:10.688Z,40.52
2022-07-30T08:25:21.697Z,40.35
2022-07-30T08:27:24.976Z,40.25
2022-07-30T08:29:29.897Z,39.94
2022-07-30T08:31:31.751Z,39.74
2022-07-30T08:33:33.646Z,39.59
2022-07-30T08:35:36.383Z,39.10
2022-07-30T08:37:50.439Z,38.44
2022-07-30T08:39:54.734Z,39.12
2022-07-30T08:41:57.676Z,39.03
2022-07-30T08:44:01.673Z,38.65
2022-07-30T08:46:08.845Z,38.78
2022-07-30T08:48:23.645Z,38.46
2022-07-30T08:50:26.235Z,38.26
2022-07-30T08:52:49.136Z,37.86
2022-07-30T08:54:51.806Z,37.61
2022-07-30T08:56:54.969Z,37.71
2022-07-30T08:58:58.161Z,37.20
2022-07-30T09:01:00.168Z,36.64
2022-07-30T09:03:04.005Z,36.65
2022-07-30T09:05:06.615Z,36.06
2022-07-30T09:07:08.640Z,35.99
2022-07-30T09:09:12.044Z,36.33
2022-07-30T09:11:16.126Z,36.19
2022-07-30T09:13:32.507Z,35.49
2022-07-30T09:15:38.727Z,34.96
2022-07-30T09:17:52.671Z,35.40
2022-07-30T09:20:04.156Z,35.51
2022-07-30T09:22:09.479Z,35.70
2022-07-30T09:24:45.793Z,33.94
2022-07-30T09:27:06.456Z,35.18
2022-07-30T09:29:29.114Z,34.76
2022-07-30T09:32:02.151Z,33.58
2022-07-30T09:34:29.891Z,33.33
2022-07-30T09:36:34.573Z,33.58
2022-07-30T09:38:55.734Z,33.54
2022-07-30T09:41:39.649Z,32.80
2022-07-30T09:43:50.357Z,33.53
2022-07-30T09:46:08.239Z,33.79
2022-07-30T09:48:22.017Z,32.31
2022-07-30T09:50:30.263Z,31.55
2022-07-30T09:52:34.909Z,32.02
2022-07-30T09:54:52.619Z,32.15
2022-07-30T09:57:05.819Z,32.28
2022-07-30T09:59:07.816Z,32.96
2022-07-30T10:01:21.920Z,32.93
2022-07-30T10:04:06.212Z,33.03
2022-07-30T10:06:41.999Z,32.70
2022-07-30T10:09:01.294Z,31.55
2022-07-30T10:11:22.708Z,31.37
2022-07-30T10:13:34.894Z,31.30
2022-07-30T10:15:37.290Z,31.38
2022-07-30T10:17:41.912Z,30.21
2022-07-30T10:20:12.324Z,30.99
2022-07-30T10:22:35.862Z,31.60
2022-07-30T10:24:56.974Z,31.62
2022-07-30T10:27:18.240Z,31.07
2022-07-30T10:29:33.619Z,30.63
2022-07-30T10:31:48.862Z,30.52
2022-07-30T10:33:51.996Z,30.85
2022-07-30T10:35:54.395Z,30.69
2022-07-30T10:37:58.206Z,30.69
2022-07-30T10:40:10.462Z,30.24
2022-07-30T10:42:44.979Z,30.61
2022-07-30T10:45:17.321Z,30.51
2022-07-30T10:47:21.245Z,31.00
2022-07-30T10:49:25.946Z,30.97
2022-07-30T10:52:03.815Z,29.98
2022-07-30T10:54:39.471Z,30.59
2022-07-30T10:56:41.931Z,30.80
2022-07-30T10:59:10.821Z,30.95
2022-07-30T11:01:17.911Z,31.31
2022-07-30T11:03:40.465Z,30.64
2022-07-30T11:05:49.270Z,30.98
2022-07-30T11:07:51.303Z,30.84
2022-07-30T11:10:05.177Z,30.69
2022-07-30T11:12:12.613Z,30.80
2022-07-30T11:14:17.941Z,31.37
2022-07-30T11:16:24.544Z,30.59
2022-07-30T11:18:28.751Z,30.71
2022-07-30T11:20:32.415Z,30.55
2022-07-30T11:22:44.775Z,30.60
2022-07-30T11:24:48.936Z,30.79
2022-07-30T11:26:51.892Z,30.33
2022-07-30T11:28:54.371Z,30.27
2022-07-30T11:30:56.801Z,30.63
2022-07-30T11:33:04.311Z,30.13
2022-07-30T11:35:19.219Z,30.50
2022-07-30T11:37:22.199Z,30.60
2022-07-30T11:39:55.366Z,30.53
2022-07-30T11:42:24.310Z,30.65
2022-07-30T11:44:28.614Z,30.82
2022-07-30T11:46:30.728Z,30.30
2022-07-30T11:48:33.396Z,30.40
2022-07-30T11:50:36.534Z,30.72
2022-07-30T11:52:38.557Z,30.66
2022-07-30T11:54:54.272Z,30.16
2022-07-30T11:57:04.442Z,30.48
2022-07-30T11:59:08.510Z,30.47
2022-07-30T12:01:16.354Z,30.15
2022-07-30T12:03:21.253Z,30.30
2022-07-30T12:05:26.167Z,30.37
2022-07-30T12:07:28.164Z,30.30
2022-07-30T12:09:30.042Z,29.81
2022-07-30T12:11:33.862Z,29.95
2022-07-30T12:13:44.940Z,29.50
2022-07-30T12:15:50.415Z,29.73
2022-07-30T12:18:11.134Z,29.64
2022-07-30T12:20:17.849Z,30.34
2022-07-30T12:22:19.927Z,30.49
2022-07-30T12:24:26.882Z,29.97
2022-07-30T12:26:30.989Z,29.89
2022-07-30T12:28:35.932Z,30.19
2022-07-30T12:30:41.140Z,29.87
2022-07-30T12:32:44.460Z,30.15
2022-07-30T12:34:56.905Z,29.54
2022-07-30T12:37:08.922Z,29.70
2022-07-30T12:39:19.520Z,29.28
2022-07-30T12:41:22.638Z,29.12
2022-07-30T12:43:46.568Z,28.87
2022-07-30T12:45:51.906Z,29.21
2022-07-30T12:47:57.671Z,28.73
2022-07-30T12:50:01.678Z,28.92
2022-07-30T12:52:03.871Z,28.94
2022-07-30T12:54:19.541Z,28.51
2022-07-30T12:56:24.271Z,28.88
2022-07-30T12:58:37.991Z,28.00
2022-07-30T13:00:51.179Z,28.32
2022-07-30T13:02:53.143Z,28.73
2022-07-30T13:05:11.090Z,28.46
2022-07-30T13:07:13.768Z,28.62
2022-07-30T13:09:22.134Z,28.55
2022-07-30T13:11:48.475Z,28.53
2022-07-30T13:13:51.644Z,29.45
2022-07-30T13:16:05.466Z,30.37
2022-07-30T13:18:07.613Z,30.43
2022-07-30T13:20:10.232Z,31.24
2022-07-30T13:22:13.533Z,31.96
2022-07-30T13:24:17.881Z,32.45
2022-07-30T13:26:20.175Z,32.72
2022-07-30T13:28:22.561Z,33.21
2022-07-30T13:30:24.400Z,33.89
2022-07-30T13:32:26.167Z,35.06
2022-07-30T13:34:28.072Z,36.04
2022-07-30T13:36:29.859Z,37.58
2022-07-30T13:38:32.043Z,39.74
2022-07-30T13:40:34.178Z,41.87
2022-07-30T13:42:35.940Z,42.24
2022-07-30T13:44:38.026Z,42.71
2022-07-30T13:46:41.447Z,43.76
2022-07-30T13:48:43.446Z,43.87
2022-07-30T13:50:45.584Z,45.16
2022-07-30T13:52:47.817Z,44.66
2022-07-30T13:54:51.428Z,44.77
2022-07-30T13:56:53.547Z,44.93
2022-07-30T13:58:55.296Z,45.91
2022-07-30T14:00:58.029Z,45.65
2022-07-30T14:03:02.158Z,45.08
2022-07-30T14:05:07.418Z,47.04
2022-07-30T14:07:09.237Z,46.47
2022-07-30T14:09:11.016Z,46.22
2022-07-30T14:11:12.848Z,45.04
2022-07-30T14:13:16.034Z,44.70
2022-07-30T14:15:24.749Z,44.16
2022-07-30T14:17:26.587Z,43.76
2022-07-30T14:19:28.505Z,43.99
2022-07-30T14:21:30.325Z,45.56
2022-07-30T14:23:32.197Z,45.53
2022-07-30T14:25:33.912Z,45.96
2022-07-30T14:27:36.509Z,46.17
2022-07-30T14:29:38.335Z,46.63
2022-07-30T14:31:40.727Z,48.05
2022-07-30T14:33:42.593Z,46.54
2022-07-30T14:35:44.393Z,45.68
2022-07-30T14:37:46.272Z,45.47
2022-07-30T14:39:48.320Z,44.88
2022-07-30T14:41:53.172Z,45.93
2022-07-30T14:43:58.092Z,45.68
2022-07-30T14:45:59.998Z,46.85
2022-07-30T14:48:02.442Z,48.72
2022-07-30T14:50:05.323Z,49.07
2022-07-30T14:52:07.526Z,50.14
2022-07-30T14:54:11.996Z,50.23
2022-07-30T14:56:13.876Z,50.19
2022-07-30T14:58:16.107Z,50.23
2022-07-30T15:00:18.546Z,50.68
2022-07-30T15:02:23.767Z,50.34
2022-07-30T15:04:25.988Z,49.90
2022-07-30T15:06:28.219Z,49.41
2022-07-30T15:08:30.303Z,49.73
2022-07-30T15:10:32.174Z,48.63
2022-07-30T15:12:34.119Z,49.00
2022-07-30T15:14:38.167Z,48.67
2022-07-30T15:16:41.620Z,47.59
2022-07-30T15:18:43.482Z,47.38
2022-07-30T15:20:45.247Z,47.25
2022-07-30T15:22:47.033Z,47.12
2022-07-30T15:24:49.198Z,47.63
2022-07-30T15:26:51.326Z,47.34
2022-07-30T15:28:53.208Z,48.16
2022-07-30T15:30:55.806Z,47.56
2022-07-30T15:32:57.982Z,47.59
2022-07-30T15:34:59.818Z,47.89
2022-07-30T15:37:02.951Z,47.66
2022-07-30T15:39:06.211Z,48.38
2022-07-30T15:41:13.306Z,48.36
2022-07-30T15:43:15.504Z,47.79
2022-07-30T15:45:18.632Z,47.97
2022-07-30T15:47:22.068Z,47.51
2022-07-30T15:49:24.141Z,48.30
2022-07-30T15:51:26.069Z,47.49
2022-07-30T15:53:28.148Z,48.80
2022-07-30T15:55:30.297Z,48.57
2022-07-30T15:57:49.030Z,47.97
2022-07-30T15:59:50.863Z,49.39
2022-07-30T16:01:53.183Z,48.71
2022-07-30T16:03:54.942Z,49.28
2022-07-30T16:05:56.751Z,48.45
2022-07-30T16:07:58.867Z,49.18
2022-07-30T16:10:00.683Z,48.85
2022-07-30T16:12:02.905Z,48.55
2022-07-30T16:14:04.896Z,48.87
2022-07-30T16:16:06.708Z,49.75
2022-07-30T16:18:08.952Z,49.67
2022-07-30T16:20:11.094Z,50.90
2022-07-30T16:22:14.920Z,50.80
2022-07-30T16:24:23.942Z,51.13
2022-07-30T16:26:25.881Z,52.26
2022-07-30T16:28:27.646Z,51.83
2022-07-30T16:30:29.482Z,51.93
2022-07-30T16:32:31.327Z,51.97
2022-07-30T16:34:33.459Z,50.68
2022-07-30T16:36:35.311Z,50.42
2022-07-30T16:38:37.534Z,50.94
2022-07-30T16:40:39.380Z,51.56
2022-07-30T16:42:41.294Z,51.40
2022-07-30T16:44:43.107Z,50.49
2022-07-30T16:46:44.986Z,52.26
2022-07-30T16:48:46.814Z,52.78
2022-07-30T16:50:52.480Z,51.52
2022-07-30T16:52:54.218Z,52.85
2022-07-30T16:54:56.029Z,52.43
2022-07-30T16:56:58.370Z,52.16
2022-07-30T16:59:00.340Z,52.87
2022-07-30T17:01:02.253Z,52.69
2022-07-30T17:03:04.370Z,53.60
2022-07-30T17:05:09.590Z,52.89
2022-07-30T17:07:13.996Z,52.80
2022-07-30T17:09:16.149Z,51.81
2022-07-30T17:11:46.455Z,52.28
2022-07-30T17:13:40.457Z,52.11
2022-07-30T17:15:42.643Z,53.71
2022-07-30T17:17:44.606Z,54.36
2022-07-30T17:19:46.449Z,53.86
2022-07-30T17:21:48.697Z,54.18
2022-07-30T17:23:50.692Z,55.17
2022-07-30T17:25:52.507Z,54.96
2022-07-30T17:27:59.111Z,55.66
2022-07-30T17:30:02.090Z,55.41
2022-07-30T17:32:04.575Z,55.43
2022-07-30T17:34:09.071Z,55.65
2022-07-30T17:36:12.815Z,55.79
2022-07-30T17:38:14.730Z,57.19
2022-07-30T17:40:29.099Z,55.93
2022-07-30T17:42:32.872Z,56.08
2022-07-30T17:44:35.509Z,56.06
2022-07-30T17:46:37.468Z,56.71
2022-07-30T17:48:39.602Z,57.42
2022-07-30T17:50:41.345Z,57.05
2022-07-30T17:52:43.420Z,57.67
2022-07-30T17:54:45.161Z,58.01
2022-07-30T17:56:48.114Z,58.15
2022-07-30T17:58:51.265Z,57.27
2022-07-30T18:00:53.526Z,56.58
2022-07-30T18:02:55.375Z,57.24
2022-07-30T18:04:57.291Z,56.33
2022-07-30T18:06:59.550Z,56.94
2022-07-30T18:09:01.794Z,56.38
2022-07-30T18:11:03.721Z,55.67
2022-07-30T18:13:25.824Z,55.46
2022-07-30T18:15:28.382Z,55.50
2022-07-30T18:17:30.207Z,54.94
2022-07-30T18:19:32.320Z,55.08
2022-07-30T18:21:34.499Z,54.82
2022-07-30T18:23:40.536Z,54.86
2022-07-30T18:25:53.042Z,54.98
2022-07-30T18:27:56.525Z,54.35
2022-07-30T18:29:58.768Z,53.51
2022-07-30T18:32:00.781Z,53.47
2022-07-30T18:34:03.082Z,53.54
2022-07-30T18:36:05.161Z,53.70
2022-07-30T18:38:06.895Z,54.27
2022-07-30T18:40:10.493Z,53.55
2022-07-30T18:42:12.313Z,53.28
2022-07-30T18:44:14.258Z,53.32
2022-07-30T18:46:16.409Z,53.18
2022-07-30T18:48:18.290Z,52.85
2022-07-30T18:50:20.163Z,53.01
2022-07-30T18:52:22.386Z,53.27
2022-07-30T18:54:24.141Z,52.92
2022-07-30T18:56:26.136Z,52.73
2022-07-30T18:58:28.026Z,53.22
2022-07-30T19:00:35.289Z,52.87
2022-07-30T19:02:38.212Z,52.73
2022-07-30T19:04:40.324Z,54.50
2022-07-30T19:06:42.187Z,53.61
2022-07-30T19:08:44.037Z,54.01
2022-07-30T19:10:45.827Z,55.02
2022-07-30T19:12:47.654Z,54.74
2022-07-30T19:14:49.939Z,55.03
2022-07-30T19:16:52.466Z,55.38
2022-07-30T19:18:54.300Z,55.09
2022-07-30T19:20:56.149Z,55.54
2022-07-30T19:23:05.727Z,56.11
2022-07-30T19:25:08.316Z,55.74
2022-07-30T19:27:14.095Z,55.64
2022-07-30T19:29:16.853Z,56.11
2022-07-30T19:31:19.804Z,56.31
2022-07-30T19:33:21.919Z,56.04
2022-07-30T19:35:23.825Z,56.04
2022-07-30T19:37:25.686Z,56.49
2022-07-30T19:39:27.510Z,56.50
2022-07-30T19:41:30.317Z,56.13
2022-07-30T19:43:33.681Z,56.07
2022-07-30T19:45:47.793Z,56.06
2022-07-30T19:47:50.339Z,55.66
2022-07-30T19:49:53.645Z,55.87
2022-07-30T19:52:10.690Z,55.50
2022-07-30T19:54:17.673Z,55.51
2022-07-30T19:56:20.008Z,54.81
2022-07-30T19:58:22.068Z,54.81
2022-07-30T20:00:26.829Z,54.66
2022-07-30T20:02:28.817Z,55.33
2022-07-30T20:04:30.891Z,55.70
2022-07-30T20:06:32.704Z,55.33
2022-07-30T20:08:38.271Z,55.56
2022-07-30T20:10:40.708Z,55.35
2022-07-30T20:12:42.884Z,55.18
2022-07-30T20:14:51.433Z,54.80
2022-07-30T20:16:53.225Z,56.05
2022-07-30T20:18:55.096Z,55.01
2022-07-30T20:20:57.656Z,55.26
2022-07-30T20:22:59.830Z,56.51
2022-07-30T20:25:02.638Z,55.91
2022-07-30T20:27:36.539Z,55.78
2022-07-30T20:29:26.845Z,55.19
2022-07-30T20:31:28.717Z,55.29
2022-07-30T20:33:37.758Z,56.41
2022-07-30T20:35:41.005Z,55.62
2022-07-30T20:37:55.035Z,55.11
2022-07-30T20:39:58.104Z,55.79
2022-07-30T20:42:12.060Z,55.82
2022-07-30T20:44:23.308Z,55.84
2022-07-30T20:46:25.686Z,55.78
2022-07-30T20:48:34.530Z,55.55
2022-07-30T20:50:39.017Z,54.92
2022-07-30T20:52:44.946Z,55.00
2022-07-30T20:54:48.316Z,54.86
2022-07-30T20:56:50.555Z,54.46
2022-07-30T20:58:52.791Z,54.55
2022-07-30T21:00:57.499Z,54.37
2022-07-30T21:03:03.149Z,55.25
2022-07-30T21:05:05.644Z,54.73
2022-07-30T21:07:08.101Z,55.01
2022-07-30T21:09:12.905Z,54.94
2022-07-30T21:11:14.869Z,55.65
2022-07-30T21:13:17.530Z,55.68
2022-07-30T21:15:23.767Z,55.83
2022-07-30T21:17:26.347Z,55.92
2022-07-30T21:19:30.682Z,55.53
2022-07-30T21:21:41.849Z,55.72
2022-07-30T21:23:49.820Z,57.05
2022-07-30T21:26:00.354Z,56.80
2022-07-30T21:28:05.187Z,56.85
2022-07-30T21:30:07.624Z,56.41
2022-07-30T21:32:10.150Z,57.24
2022-07-30T21:34:13.464Z,55.89
2022-07-30T21:36:15.416Z,56.58
2022-07-30T21:38:17.232Z,57.13
2022-07-30T21:40:24.540Z,56.15
2022-07-30T21:42:30.251Z,55.94
2022-07-30T21:44:32.284Z,56.81
2022-07-30T21:46:34.200Z,57.07
2022-07-30T21:48:36.075Z,57.18
2022-07-30T21:50:38.192Z,56.53
2022-07-30T21:52:40.181Z,56.25
2022-07-30T21:54:48.123Z,57.54
2022-07-30T21:56:50.570Z,57.65
2022-07-30T21:58:52.388Z,57.73
2022-07-30T22:00:55.517Z,57.69
2022-07-30T22:02:57.466Z,57.81
2022-07-30T22:04:59.373Z,58.06
2022-07-30T22:07:04.088Z,57.59
2022-07-30T22:09:19.419Z,57.20
2022-07-30T22:11:42.686Z,56.99
2022-07-30T22:13:51.188Z,56.73
2022-07-30T22:15:53.513Z,57.31
2022-07-30T22:17:57.992Z,57.52
2022-07-30T22:20:01.013Z,57.81
2022-07-30T22:22:05.240Z,58.16
2022-07-30T22:24:29.704Z,56.58
2022-07-30T22:26:32.296Z,56.93
2022-07-30T22:28:34.110Z,56.91
2022-07-30T22:30:35.981Z,57.37
2022-07-30T22:32:38.860Z,57.34
2022-07-30T22:34:40.887Z,56.97
2022-07-30T22:36:45.556Z,56.54
2022-07-30T22:38:58.603Z,57.62
2022-07-30T22:41:01.670Z,57.35
2022-07-30T22:43:09.288Z,56.52
2022-07-30T22:45:14.316Z,56.86
2022-07-30T22:47:17.892Z,56.60
2022-07-30T22:49:45.270Z,56.48
2022-07-30T22:52:03.339Z,56.49
2022-07-30T22:54:12.821Z,56.72
2022-07-30T22:58:36.911Z,56.88
2022-07-30T23:00:41.587Z,57.00
2022-07-30T23:02:45.062Z,57.22
2022-07-30T23:04:47.194Z,56.66
2022-07-30T23:06:51.539Z,56.71
2022-07-30T23:08:53.264Z,56.75
2022-07-30T23:10:57.178Z,56.69
2022-07-30T23:12:30.810Z,57.05
2022-07-30T23:12:59.468Z,57.72
2022-07-30T23:15:01.876Z,57.92
2022-07-30T23:17:03.842Z,57.95
2022-07-30T23:19:06.761Z,57.99
2022-07-30T23:21:08.608Z,58.17
2022-07-30T23:23:11.707Z,57.70
2022-07-30T23:25:14.029Z,57.54
2022-07-30T23:27:15.854Z,57.51
2022-07-30T23:29:17.672Z,57.59
2022-07-30T23:31:21.931Z,57.36
2022-07-30T23:33:25.869Z,57.54
2022-07-30T23:35:27.846Z,57.53
2022-07-30T23:37:29.669Z,58.60
2022-07-30T23:39:49.753Z,59.20
2022-07-30T23:41:51.966Z,59.86
2022-07-30T23:43:53.822Z,60.01
2022-07-30T23:45:55.588Z,60.44
2022-07-30T23:48:02.476Z,60.40
2022-07-30T23:50:05.747Z,61.11
2022-07-30T23:52:07.644Z,61.33
2022-07-30T23:54:09.453Z,61.68
2022-07-30T23:56:15.555Z,62.96
2022-07-30T23:58:18.358Z,61.68
